Time;durP1;ratioP1;P1;durP2;ratioP2;P2;SDS_P1;SDS_P2;PMS_P1;PMS_P2;Temp;Humidity;BMP_temperature;BMP_pressure;BME280_temperature;BME280_humidity;BME280_pressure;Samples;Min_cycle;Max_cycle;Signal;HPM_P1;HPM_P2
2022/01/16 00:02:09;;;;;;;8.40;2.43;;;2.10;99.90;;;;;;5137492;27;20043;-76
2022/01/16 00:04:34;;;;;;;12.07;4.17;;;2.20;99.90;;;;;;5133848;27;20048;-76
2022/01/16 00:07:04;;;;;;;15.50;4.00;;;2.20;99.90;;;;;;5134795;27;20160;-73
2022/01/16 00:09:31;;;;;;;11.13;3.27;;;2.20;99.90;;;;;;5134289;27;20054;-71
2022/01/16 00:12:00;;;;;;;10.43;4.03;;;2.20;99.90;;;;;;5134313;27;20046;-69
2022/01/16 00:14:30;;;;;;;10.07;4.83;;;2.10;99.90;;;;;;5133580;27;20411;-72
2022/01/16 00:16:56;;;;;;;11.67;3.80;;;2.10;99.90;;;;;;5133827;27;20521;-72
2022/01/16 00:19:23;;;;;;;12.07;5.17;;;2.00;99.90;;;;;;5133937;27;20043;-73
2022/01/16 00:21:50;;;;;;;10.77;3.93;;;2.10;99.90;;;;;;5135096;27;20449;-80
2022/01/16 00:24:16;;;;;;;6.77;3.33;;;2.10;99.90;;;;;;5137665;27;20055;-75
2022/01/16 00:26:43;;;;;;;4.73;2.70;;;2.10;99.90;;;;;;5134292;27;20052;-76
2022/01/16 00:29:12;;;;;;;6.73;4.60;;;1.90;99.90;;;;;;5134319;27;20047;-77
2022/01/16 00:31:41;;;;;;;9.07;3.33;;;1.90;99.90;;;;;;5136319;27;20534;-78
2022/01/16 00:34:09;;;;;;;13.30;3.67;;;1.90;99.90;;;;;;5136550;27;20552;-77
2022/01/16 00:36:36;;;;;;;9.30;4.80;;;2.00;99.90;;;;;;5136376;27;20376;-76
2022/01/16 00:39:04;;;;;;;15.07;4.63;;;1.90;99.90;;;;;;5135791;27;20039;-72
2022/01/16 00:41:32;;;;;;;9.97;4.13;;;1.90;99.90;;;;;;5134365;27;20066;-77
2022/01/16 00:43:58;;;;;;;10.20;4.93;;;1.80;99.90;;;;;;5135763;27;20047;-74
2022/01/16 00:46:25;;;;;;;13.53;3.27;;;1.90;99.90;;;;;;5136860;27;20051;-79
2022/01/16 00:48:53;;;;;;;4.80;2.87;;;1.90;99.90;;;;;;5135016;27;20094;-73
2022/01/16 00:51:20;;;;;;;7.53;3.00;;;1.90;99.90;;;;;;5133443;27;20104;-72
2022/01/16 00:53:46;;;;;;;7.33;2.80;;;1.80;99.90;;;;;;5139382;27;20092;-79
2022/01/16 00:56:14;;;;;;;6.77;2.13;;;1.70;99.90;;;;;;5138670;27;20511;-79
2022/01/16 00:58:41;;;;;;;11.47;4.73;;;1.80;99.90;;;;;;5138449;27;20047;-78
2022/01/16 01:01:08;;;;;;;10.03;3.47;;;1.70;99.90;;;;;;5136845;27;20457;-80
2022/01/16 01:03:35;;;;;;;7.97;3.37;;;1.70;99.90;;;;;;5138817;27;20103;-80
2022/01/16 01:06:05;;;;;;;8.77;3.40;;;1.70;99.90;;;;;;5139958;27;20039;-80
2022/01/16 01:08:31;;;;;;;6.80;4.40;;;1.60;99.90;;;;;;5140453;27;20043;-80
2022/01/16 01:11:00;;;;;;;8.80;3.70;;;1.60;99.90;;;;;;5137824;27;20502;-78
2022/01/16 01:13:33;;;;;;;6.93;3.00;;;1.70;99.90;;;;;;5136207;27;20055;-78
2022/01/16 01:16:03;;;;;;;7.40;3.30;;;1.90;99.90;;;;;;5135952;27;20049;-78
2022/01/16 01:18:32;;;;;;;2.80;2.53;;;1.90;99.90;;;;;;5139719;27;20067;-79
2022/01/16 01:21:02;;;;;;;9.93;2.83;;;1.90;99.90;;;;;;5138765;27;20043;-78
2022/01/16 01:23:30;;;;;;;11.63;4.20;;;1.90;99.90;;;;;;5139546;27;20069;-81
2022/01/16 01:25:56;;;;;;;9.43;3.43;;;1.90;99.90;;;;;;5144716;27;20050;-81
2022/01/16 01:28:23;;;;;;;4.63;2.73;;;1.90;99.90;;;;;;5157212;27;20031;-82
2022/01/16 01:30:50;;;;;;;10.80;4.83;;;1.80;99.90;;;;;;5143077;27;20055;-80
2022/01/16 01:33:19;;;;;;;13.23;3.83;;;1.80;99.90;;;;;;5139810;27;20043;-78
2022/01/16 01:35:46;;;;;;;13.17;3.30;;;1.80;99.90;;;;;;5136447;27;20092;-78
2022/01/16 01:38:17;;;;;;;5.47;2.43;;;1.80;99.90;;;;;;5139240;27;20043;-79
2022/01/16 01:40:47;;;;;;;9.93;2.78;;;1.90;99.90;;;;;;5134733;27;20130;-78
2022/01/16 01:51:36;;;;;;;7.70;3.00;;;1.80;99.90;;;;;;5133771;27;20116;-78
2022/01/16 01:54:03;;;;;;;9.63;4.77;;;1.80;99.90;;;;;;5133421;28;20055;-79
2022/01/16 01:56:32;;;;;;;10.27;4.10;;;1.70;99.90;;;;;;5133824;28;20039;-78
2022/01/16 01:59:01;;;;;;;3.73;3.20;;;1.60;99.90;;;;;;5136446;27;20088;-82
2022/01/16 02:01:30;;;;;;;14.50;4.97;;;1.40;99.90;;;;;;5140729;27;20115;-80
2022/01/16 02:03:56;;;;;;;8.10;4.00;;;1.30;99.90;;;;;;5142868;28;20374;-82
2022/01/16 02:06:25;;;;;;;6.83;3.00;;;1.40;99.90;;;;;;5144422;27;20047;-83
2022/01/16 02:08:53;;;;;;;7.20;4.00;;;1.40;99.90;;;;;;5147076;27;20096;-84
2022/01/16 02:11:24;;;;;;;3.80;2.43;;;1.40;99.90;;;;;;5145901;27;20050;-80
2022/01/16 02:13:57;;;;;;;3.73;2.93;;;1.40;99.90;;;;;;5145711;27;20043;-81
2022/01/16 02:35:55;;;;;;;8.83;3.77;;;1.30;99.90;;;;;;5076402;28;20053;-78
2022/01/16 02:38:24;;;;;;;3.97;2.43;;;1.20;99.90;;;;;;5079552;28;20619;-78
2022/01/16 02:40:55;;;;;;;10.60;3.97;;;1.20;99.90;;;;;;5079378;28;20602;-78
2022/01/16 02:43:29;;;;;;;9.13;3.83;;;1.30;99.90;;;;;;5079931;28;20065;-78
2022/01/16 02:46:35;;;;;;;5.23;2.90;;;1.30;99.90;;;;;;5077590;28;20052;-79
2022/01/16 02:48:48;;;;;;;7.20;3.23;;;1.30;99.90;;;;;;5081160;28;20070;-79
2022/01/16 02:51:17;;;;;;;4.37;3.93;;;1.30;99.90;;;;;;5080214;28;20055;-78
2022/01/16 02:53:46;;;;;;;5.43;4.90;;;1.30;99.90;;;;;;5080105;28;20044;-77
2022/01/16 02:56:13;;;;;;;15.30;4.60;;;1.30;99.90;;;;;;5079474;28;20052;-79
2022/01/16 02:58:40;;;;;;;10.40;4.10;;;1.20;99.90;;;;;;5082468;28;20112;-80
2022/01/16 03:01:06;;;;;;;4.83;3.73;;;1.20;99.90;;;;;;5083445;28;20389;-80
2022/01/16 03:03:34;;;;;;;9.97;4.90;;;1.20;99.90;;;;;;5081742;28;20368;-82
2022/01/16 03:06:00;;;;;;;4.57;3.87;;;1.20;99.90;;;;;;5080348;28;20048;-81
2022/01/16 03:08:27;;;;;;;8.57;3.33;;;1.10;99.90;;;;;;5080585;28;20055;-81
2022/01/16 03:11:11;;;;;;;44.83;4.13;;;1.10;99.90;;;;;;5080285;28;20138;-81
2022/01/16 03:13:40;;;;;;;12.40;3.20;;;1.10;99.90;;;;;;5123470;27;20082;-79
2022/01/16 03:16:07;;;;;;;12.83;3.27;;;1.10;99.90;;;;;;5138527;27;20142;-78
2022/01/16 03:24:03;;;;;;;13.43;2.80;;;0.90;99.90;;;;;;5139844;27;20054;-83
2022/01/16 03:26:31;;;;;;;8.33;3.37;;;0.90;99.90;;;;;;5142572;27;20039;-83
2022/01/16 03:28:57;;;;;;;3.83;2.53;;;0.80;99.90;;;;;;5143783;27;20043;-83
2022/01/16 03:31:24;;;;;;;10.43;4.53;;;0.70;99.90;;;;;;5144389;27;20051;-80
2022/01/16 03:33:51;;;;;;;5.73;3.07;;;0.70;99.90;;;;;;5144767;27;20043;-80
2022/01/16 03:36:19;;;;;;;3.87;2.73;;;0.70;99.90;;;;;;5145063;27;20047;-81
2022/01/16 03:38:46;;;;;;;13.73;3.57;;;0.60;99.90;;;;;;5144648;27;20054;-80
2022/01/16 03:41:12;;;;;;;9.57;2.43;;;0.50;99.90;;;;;;5143272;27;20047;-79
2022/01/16 03:43:40;;;;;;;18.57;4.43;;;0.50;99.90;;;;;;5140392;27;20072;-77
2022/01/16 03:46:07;;;;;;;5.83;3.03;;;0.40;99.90;;;;;;5139132;27;20092;-78
2022/01/16 03:48:33;;;;;;;18.57;3.43;;;0.40;99.90;;;;;;5139639;27;20112;-79
2022/01/16 03:51:00;;;;;;;10.97;2.47;;;0.30;99.90;;;;;;5139436;27;20068;-79
2022/01/16 03:53:27;;;;;;;5.00;3.33;;;0.30;99.90;;;;;;5140301;27;20040;-79
2022/01/16 03:55:54;;;;;;;7.33;3.17;;;0.30;99.90;;;;;;5139802;27;20047;-79
2022/01/16 03:58:20;;;;;;;3.33;2.53;;;0.20;99.90;;;;;;5139315;27;20047;-79
2022/01/16 04:00:48;;;;;;;5.37;3.03;;;0.20;99.90;;;;;;5139381;27;20471;-79
2022/01/16 04:03:15;;;;;;;7.80;4.17;;;0.10;99.90;;;;;;5136942;27;20051;-78
2022/01/16 04:05:41;;;;;;;9.57;3.23;;;0.10;99.90;;;;;;5137722;27;20051;-78
2022/01/16 04:08:08;;;;;;;11.00;2.80;;;0.10;99.90;;;;;;5140584;27;20065;-78
2022/01/16 04:10:35;;;;;;;6.73;2.30;;;0.10;99.90;;;;;;5144262;27;20392;-80
2022/01/16 04:13:03;;;;;;;4.70;3.50;;;0.00;99.90;;;;;;5144190;27;20039;-80
2022/01/16 04:15:32;;;;;;;7.27;3.90;;;0.00;99.90;;;;;;5144319;27;20043;-81
2022/01/16 04:18:01;;;;;;;9.93;3.33;;;0.00;99.90;;;;;;5143731;27;20043;-80
2022/01/16 04:20:28;;;;;;;3.60;3.00;;;-0.10;99.90;;;;;;5142670;27;20091;-79
2022/01/16 04:22:54;;;;;;;5.50;3.47;;;-0.10;99.90;;;;;;5141282;27;20043;-78
2022/01/16 04:25:21;;;;;;;6.90;2.73;;;-0.10;99.90;;;;;;5138883;27;20441;-79
2022/01/16 04:27:48;;;;;;;8.23;2.67;;;-0.10;99.90;;;;;;5139489;27;20052;-78
2022/01/16 04:30:15;;;;;;;7.60;4.37;;;-0.20;99.90;;;;;;5139530;27;20043;-77
2022/01/16 04:32:42;;;;;;;6.07;4.27;;;-0.20;99.90;;;;;;5138740;27;20135;-80
2022/01/16 04:35:10;;;;;;;15.87;2.90;;;-0.20;99.90;;;;;;5138997;27;20043;-80
2022/01/16 04:37:37;;;;;;;8.17;3.57;;;-0.20;99.90;;;;;;5140701;27;20558;-80
2022/01/16 04:40:05;;;;;;;3.23;2.00;;;-0.30;99.90;;;;;;5141828;27;20079;-78
2022/01/16 04:45:16;;;;;;;3.93;2.60;;;-0.30;99.90;;;;;;5138564;27;20054;-82
2022/01/16 04:47:43;;;;;;;3.93;1.63;;;-0.30;99.90;;;;;;5141998;27;20049;-80
2022/01/16 04:50:13;;;;;;;14.67;5.23;;;-0.30;99.90;;;;;;5144135;27;20112;-80
2022/01/16 04:52:42;;;;;;;6.37;2.57;;;-0.40;99.90;;;;;;5144341;27;20043;-81
2022/01/16 04:55:10;;;;;;;10.10;2.60;;;-0.50;99.90;;;;;;5143475;27;20088;-79
2022/01/16 04:57:37;;;;;;;10.13;3.87;;;-0.50;99.90;;;;;;5141246;27;20323;-82
2022/01/16 05:00:07;;;;;;;7.43;3.30;;;-0.50;99.90;;;;;;5143284;27;20096;-80
2022/01/16 05:02:34;;;;;;;5.80;3.37;;;-0.50;99.90;;;;;;5145519;27;20463;-80
2022/01/16 05:05:00;;;;;;;3.60;2.60;;;-0.50;99.90;;;;;;5144015;27;20490;-80
2022/01/16 05:07:30;;;;;;;10.33;3.00;;;-0.50;99.90;;;;;;5144198;27;20054;-79
2022/01/16 05:09:56;;;;;;;7.20;2.50;;;-0.50;99.90;;;;;;5141451;27;20043;-81
2022/01/16 05:12:32;;;;;;;6.40;3.87;;;-0.50;99.90;;;;;;5143535;27;20449;-81
2022/01/16 05:17:43;;;;;;;13.67;4.03;;;-0.60;99.90;;;;;;5143389;27;20054;-80
2022/01/16 05:20:11;;;;;;;7.27;3.70;;;-0.60;99.90;;;;;;5137799;27;20043;-79
2022/01/16 05:22:39;;;;;;;12.53;3.23;;;-0.60;99.90;;;;;;5139976;27;20039;-80
2022/01/16 05:25:07;;;;;;;5.47;2.67;;;-0.60;99.90;;;;;;5140658;27;20496;-81
2022/01/16 05:27:34;;;;;;;5.80;2.60;;;-0.50;99.90;;;;;;5141033;27;20058;-81
2022/01/16 05:30:00;;;;;;;3.83;2.60;;;-0.70;99.90;;;;;;5141099;27;20103;-81
2022/01/16 05:32:28;;;;;;;8.17;3.03;;;-0.80;99.90;;;;;;5138958;27;20058;-80
2022/01/16 05:34:54;;;;;;;8.97;2.53;;;-0.80;99.90;;;;;;5138694;27;20452;-78
2022/01/16 05:37:21;;;;;;;4.27;3.03;;;-0.80;99.90;;;;;;5135466;27;20096;-77
2022/01/16 05:39:49;;;;;;;5.90;3.67;;;-0.80;99.90;;;;;;5134993;27;20043;-79
2022/01/16 05:42:16;;;;;;;9.37;3.93;;;-0.80;99.90;;;;;;5135765;27;20043;-77
2022/01/16 05:44:43;;;;;;;9.60;4.20;;;-0.80;99.90;;;;;;5133921;27;20047;-79
2022/01/16 05:47:12;;;;;;;4.03;2.33;;;-0.80;99.90;;;;;;5134666;27;20047;-77
2022/01/16 05:49:41;;;;;;;10.07;3.60;;;-0.90;99.90;;;;;;5135576;28;20072;-77
2022/01/16 05:52:08;;;;;;;10.93;3.40;;;-0.90;99.90;;;;;;5134220;27;20492;-77
2022/01/16 05:54:35;;;;;;;9.53;3.17;;;-0.90;99.90;;;;;;5135792;28;20072;-77
2022/01/16 05:57:03;;;;;;;3.60;3.07;;;-0.90;99.90;;;;;;5136806;28;20043;-78
2022/01/16 05:59:30;;;;;;;5.60;2.83;;;-0.80;99.90;;;;;;5136263;28;20051;-78
2022/01/16 06:01:57;;;;;;;9.90;2.60;;;-0.70;99.90;;;;;;5138187;28;20047;-80
2022/01/16 06:04:23;;;;;;;3.50;2.63;;;-0.70;99.90;;;;;;5139944;28;20092;-80
2022/01/16 06:06:50;;;;;;;4.47;3.10;;;-0.80;99.90;;;;;;5141235;28;20198;-80
2022/01/16 06:09:16;;;;;;;5.90;4.33;;;-0.80;99.90;;;;;;5142079;28;20120;-79
2022/01/16 06:11:43;;;;;;;9.47;3.50;;;-0.90;99.90;;;;;;5140993;27;20100;-80
2022/01/16 06:14:11;;;;;;;5.80;3.47;;;-0.90;99.90;;;;;;5137703;27;20560;-80
2022/01/16 06:16:38;;;;;;;18.87;5.00;;;-1.00;99.90;;;;;;5138616;28;20100;-79
2022/01/16 06:19:05;;;;;;;9.53;2.80;;;-1.00;99.90;;;;;;5139141;27;20047;-80
2022/01/16 06:21:31;;;;;;;8.13;3.70;;;-1.00;99.90;;;;;;5140278;27;20094;-80
2022/01/16 06:23:58;;;;;;;5.73;3.03;;;-1.00;99.90;;;;;;5138786;27;20047;-79
2022/01/16 06:26:25;;;;;;;7.63;3.57;;;-1.00;99.90;;;;;;5137247;27;20551;-79
2022/01/16 06:28:51;;;;;;;3.77;3.13;;;-1.10;99.90;;;;;;5136631;27;20047;-79
2022/01/16 06:31:19;;;;;;;3.20;2.70;;;-1.10;99.90;;;;;;5134319;28;20043;-78
2022/01/16 06:33:46;;;;;;;4.50;3.50;;;-1.10;99.90;;;;;;5133642;27;20047;-79
2022/01/16 06:36:13;;;;;;;9.20;2.30;;;-1.10;99.90;;;;;;5133497;27;20044;-77
2022/01/16 06:38:40;;;;;;;13.90;4.07;;;-1.20;99.90;;;;;;5134627;28;20043;-77
2022/01/16 06:41:06;;;;;;;21.33;11.97;;;-1.20;99.90;;;;;;5135124;28;20051;-79
2022/01/16 06:43:33;;;;;;;11.67;4.80;;;-1.20;99.90;;;;;;5135443;27;20407;-79
2022/01/16 06:46:00;;;;;;;8.67;3.33;;;-1.20;99.90;;;;;;5134713;28;20407;-79
2022/01/16 06:48:28;;;;;;;6.57;3.90;;;-1.20;99.90;;;;;;5134948;27;20055;-77
2022/01/16 06:50:55;;;;;;;3.60;3.27;;;-1.20;99.90;;;;;;5135677;27;20050;-78
2022/01/16 06:53:21;;;;;;;9.17;3.40;;;-1.20;99.90;;;;;;5138678;27;20100;-78
2022/01/16 06:55:48;;;;;;;6.83;3.60;;;-1.20;99.90;;;;;;5137989;27;20043;-78
2022/01/16 06:58:14;;;;;;;7.93;4.20;;;-1.20;99.90;;;;;;5138337;27;20092;-79
2022/01/16 07:00:42;;;;;;;9.43;4.17;;;-1.20;99.90;;;;;;5138643;27;20080;-78
2022/01/16 07:03:09;;;;;;;9.87;3.80;;;-1.10;99.90;;;;;;5137801;27;20475;-79
2022/01/16 07:05:37;;;;;;;4.43;4.03;;;-1.10;99.90;;;;;;5138049;27;20866;-80
2022/01/16 07:08:04;;;;;;;9.93;3.90;;;-1.10;99.90;;;;;;5139415;27;20047;-79
2022/01/16 07:10:30;;;;;;;7.37;4.10;;;-1.20;99.90;;;;;;5138557;27;20043;-79
2022/01/16 07:12:57;;;;;;;9.77;3.33;;;-1.10;99.90;;;;;;5138883;27;20054;-81
2022/01/16 07:15:24;;;;;;;8.43;3.50;;;-1.10;99.90;;;;;;5141069;27;20047;-79
2022/01/16 07:17:50;;;;;;;11.67;4.53;;;-1.10;99.90;;;;;;5139689;27;20051;-80
2022/01/16 07:20:17;;;;;;;5.57;3.40;;;-1.10;99.90;;;;;;5139735;27;20047;-81
2022/01/16 07:22:45;;;;;;;9.33;4.43;;;-1.10;99.90;;;;;;5139169;27;20043;-79
2022/01/16 07:25:13;;;;;;;5.93;3.77;;;-1.10;99.90;;;;;;5137466;27;20054;-80
2022/01/16 07:27:40;;;;;;;10.13;6.27;;;-1.10;99.90;;;;;;5136905;27;20539;-79
2022/01/16 07:30:09;;;;;;;8.57;3.43;;;-1.00;99.90;;;;;;5136060;27;20052;-78
2022/01/16 07:32:35;;;;;;;4.30;3.90;;;-1.10;99.90;;;;;;5136659;27;20096;-77
2022/01/16 07:35:03;;;;;;;15.10;5.03;;;-1.00;99.90;;;;;;5135585;27;20092;-77
2022/01/16 07:37:30;;;;;;;6.60;4.80;;;-1.00;99.90;;;;;;5136018;27;20047;-78
2022/01/16 07:39:58;;;;;;;13.23;5.17;;;-1.00;99.90;;;;;;5136802;27;20495;-79
2022/01/16 07:42:25;;;;;;;6.80;5.27;;;-0.90;99.90;;;;;;5139181;27;20065;-80
2022/01/16 07:44:52;;;;;;;4.27;3.67;;;-0.90;99.90;;;;;;5140282;27;20096;-79
2022/01/16 07:47:18;;;;;;;9.73;5.27;;;-0.90;99.90;;;;;;5144203;27;20089;-79
2022/01/16 07:49:45;;;;;;;8.13;3.50;;;-0.80;99.90;;;;;;5143937;27;20527;-80
2022/01/16 07:52:12;;;;;;;9.80;5.40;;;-0.70;99.90;;;;;;5143356;27;20047;-79
2022/01/16 07:54:38;;;;;;;10.10;4.37;;;-0.60;99.90;;;;;;5142335;27;20452;-81
2022/01/16 07:57:07;;;;;;;6.13;5.57;;;-0.60;99.90;;;;;;5141788;27;20043;-81
2022/01/16 07:59:33;;;;;;;16.13;5.53;;;-0.60;99.90;;;;;;5141998;27;20405;-80
2022/01/16 08:02:00;;;;;;;14.53;4.00;;;-0.50;99.90;;;;;;5143590;27;20055;-82
2022/01/16 08:04:27;;;;;;;17.47;6.67;;;-0.50;99.90;;;;;;5138530;27;20043;-80
2022/01/16 08:06:53;;;;;;;15.00;6.80;;;-0.30;99.90;;;;;;5139414;27;20051;-81
2022/01/16 08:09:21;;;;;;;13.80;6.87;;;-0.20;99.90;;;;;;5140390;27;20126;-79
2022/01/16 08:11:48;;;;;;;23.40;6.70;;;-0.10;99.90;;;;;;5139681;27;20077;-81
2022/01/16 08:14:18;;;;;;;12.40;6.43;;;0.00;99.90;;;;;;5141512;27;20065;-80
2022/01/16 08:16:45;;;;;;;10.10;7.70;;;0.10;99.90;;;;;;5138659;27;20042;-80
2022/01/16 08:19:12;;;;;;;13.77;7.43;;;0.00;99.90;;;;;;5140265;27;20039;-81
2022/01/16 08:21:39;;;;;;;13.67;6.67;;;0.20;99.90;;;;;;5139639;27;20047;-80
2022/01/16 08:24:06;;;;;;;13.17;7.87;;;0.30;99.90;;;;;;5139456;27;20081;-81
2022/01/16 08:26:34;;;;;;;17.87;9.53;;;0.30;99.90;;;;;;5139472;27;20047;-81
2022/01/16 08:29:01;;;;;;;22.23;8.03;;;0.30;99.90;;;;;;5139581;27;20055;-82
2022/01/16 08:31:29;;;;;;;14.63;8.00;;;0.30;99.90;;;;;;5138277;27;20043;-81
2022/01/16 08:33:55;;;;;;;15.63;7.90;;;0.30;99.90;;;;;;5139780;27;20123;-80
2022/01/16 08:36:22;;;;;;;13.30;8.77;;;0.30;99.90;;;;;;5139289;27;20043;-80
2022/01/16 08:38:49;;;;;;;20.20;9.83;;;0.40;99.90;;;;;;5139414;27;20112;-78
2022/01/16 08:41:16;;;;;;;17.20;8.30;;;0.40;99.90;;;;;;5138468;27;20043;-80
2022/01/16 08:43:43;;;;;;;10.90;6.50;;;0.40;99.90;;;;;;5138691;27;20043;-80
2022/01/16 08:46:10;;;;;;;12.13;7.67;;;0.40;99.90;;;;;;5138540;27;20066;-81
2022/01/16 08:48:38;;;;;;;17.73;10.57;;;0.40;99.90;;;;;;5139198;27;20047;-79
2022/01/16 08:51:04;;;;;;;18.53;10.60;;;0.40;99.90;;;;;;5138832;27;20441;-80
2022/01/16 08:53:31;;;;;;;18.00;12.20;;;0.40;99.90;;;;;;5138893;27;20043;-80
2022/01/16 08:55:58;;;;;;;16.97;10.13;;;0.30;99.90;;;;;;5138310;27;20050;-81
2022/01/16 08:58:25;;;;;;;19.07;11.67;;;0.40;99.90;;;;;;5138732;27;20483;-80
2022/01/16 09:00:52;;;;;;;13.93;10.67;;;0.40;99.90;;;;;;5138297;27;20076;-82
2022/01/16 09:03:20;;;;;;;18.17;10.53;;;0.30;99.90;;;;;;5137564;27;20176;-80
2022/01/16 09:05:48;;;;;;;24.53;13.37;;;0.30;99.90;;;;;;5137472;27;20092;-80
2022/01/16 09:08:16;;;;;;;25.13;12.33;;;0.20;99.90;;;;;;5137975;27;20229;-80
2022/01/16 09:10:44;;;;;;;17.60;13.03;;;0.10;99.90;;;;;;5137011;27;20047;-81
2022/01/16 09:13:12;;;;;;;22.63;9.90;;;0.20;99.90;;;;;;5138302;27;20076;-80
2022/01/16 09:15:40;;;;;;;19.83;13.77;;;0.10;99.90;;;;;;5138072;27;20051;-81
2022/01/16 09:18:07;;;;;;;24.77;14.20;;;0.20;99.90;;;;;;5138007;27;20039;-80
2022/01/16 09:20:34;;;;;;;16.47;11.37;;;0.10;99.90;;;;;;5137167;27;20556;-80
2022/01/16 09:23:02;;;;;;;16.00;12.70;;;0.20;99.90;;;;;;5137991;27;20119;-81
2022/01/16 09:25:29;;;;;;;22.73;11.87;;;0.30;99.90;;;;;;5136699;27;20134;-81
2022/01/16 09:27:56;;;;;;;19.83;13.80;;;0.30;99.90;;;;;;5137115;27;20074;-78
2022/01/16 09:30:24;;;;;;;18.20;12.00;;;0.40;99.90;;;;;;5137265;27;20407;-78
2022/01/16 09:32:52;;;;;;;21.13;14.03;;;0.50;99.90;;;;;;5138193;27;20506;-79
2022/01/16 09:35:19;;;;;;;20.27;14.43;;;0.60;99.90;;;;;;5138759;27;20046;-80
2022/01/16 09:37:46;;;;;;;27.17;14.73;;;0.70;99.90;;;;;;5141712;27;20051;-84
2022/01/16 09:40:24;;;;;;;21.13;13.93;;;0.80;99.90;;;;;;5143084;27;20484;-80
2022/01/16 09:42:52;;;;;;;22.43;11.97;;;0.70;99.90;;;;;;5143177;27;20039;-81
2022/01/16 09:45:20;;;;;;;22.57;13.47;;;0.90;99.90;;;;;;5143952;27;20043;-81
2022/01/16 09:47:48;;;;;;;18.93;13.20;;;1.00;99.90;;;;;;5142741;28;20069;-80
2022/01/16 09:50:18;;;;;;;20.93;12.07;;;1.00;99.90;;;;;;5141555;27;20093;-82
2022/01/16 09:52:46;;;;;;;24.43;14.07;;;0.90;99.90;;;;;;5141518;27;20051;-80
2022/01/16 09:55:13;;;;;;;21.33;16.60;;;0.90;99.90;;;;;;5143326;27;20552;-80
2022/01/16 09:57:42;;;;;;;22.47;14.70;;;0.90;99.90;;;;;;5142624;27;20058;-80
2022/01/16 10:00:12;;;;;;;21.83;13.47;;;0.90;99.90;;;;;;5143704;27;20119;-78
2022/01/16 10:02:39;;;;;;;25.73;15.97;;;0.80;99.90;;;;;;5142512;28;20047;-81
2022/01/16 10:05:22;;;;;;;30.50;17.07;;;0.70;99.90;;;;;;5139153;27;20043;-79
2022/01/16 10:07:49;;;;;;;15.53;11.97;;;0.80;99.90;;;;;;5135886;27;20039;-77
2022/01/16 10:10:16;;;;;;;21.23;12.00;;;1.00;99.90;;;;;;5134666;27;20047;-76
2022/01/16 10:12:47;;;;;;;24.20;14.27;;;1.00;99.90;;;;;;5133555;27;20096;-76
2022/01/16 10:15:18;;;;;;;25.65;12.38;;;1.10;99.90;;;;;;5132406;28;20043;-75
2022/01/16 10:17:46;;;;;;;25.73;15.07;;;0.90;99.90;;;;;;5132638;28;20047;-75
2022/01/16 10:20:16;;;;;;;40.27;17.03;;;0.90;99.90;;;;;;5132431;27;20131;-77
2022/01/16 10:22:46;;;;;;;24.20;15.07;;;1.10;99.90;;;;;;5132117;28;20502;-75
2022/01/16 10:25:14;;;;;;;16.67;12.40;;;1.10;99.90;;;;;;5131709;27;20047;-75
2022/01/16 10:27:43;;;;;;;23.23;14.93;;;1.20;99.90;;;;;;5135268;27;20559;-74
2022/01/16 10:30:14;;;;;;;19.43;12.63;;;1.20;99.90;;;;;;5136689;27;20044;-77
2022/01/16 10:32:42;;;;;;;18.83;12.40;;;1.30;99.90;;;;;;5137678;27;20053;-79
2022/01/16 10:35:14;;;;;;;21.20;14.10;;;1.10;99.90;;;;;;5138623;27;20043;-75
2022/01/16 10:37:43;;;;;;;17.08;12.13;;;1.10;99.90;;;;;;5137244;27;20040;-75
2022/01/16 10:40:14;;;;;;;25.00;14.33;;;1.00;99.90;;;;;;5137639;27;20209;-76
2022/01/16 10:42:42;;;;;;;29.30;13.80;;;1.00;99.90;;;;;;5137777;27;20058;-76
2022/01/16 10:45:12;;;;;;;20.77;14.27;;;0.90;99.90;;;;;;5138635;27;20513;-76
2022/01/16 10:47:42;;;;;;;25.57;15.10;;;0.90;99.90;;;;;;5138160;27;20051;-75
2022/01/16 10:50:14;;;;;;;22.67;14.63;;;0.90;99.90;;;;;;5137439;27;20051;-76
2022/01/16 10:52:56;;;;;;;20.80;14.20;;;0.90;99.90;;;;;;5137649;27;20414;-76
2022/01/16 10:55:31;;;;;;;26.48;14.95;;;0.90;99.90;;;;;;5137257;27;20040;-77
2022/01/16 10:58:08;;;;;;;57.03;29.63;;;1.00;99.90;;;;;;5137477;27;20104;-76
2022/01/16 11:00:38;;;;;;;22.27;14.13;;;1.10;99.90;;;;;;5137229;27;20043;-76
2022/01/16 11:03:07;;;;;;;23.77;15.20;;;1.10;99.90;;;;;;5136933;27;20051;-76
2022/01/16 11:05:36;;;;;;;30.17;15.40;;;1.10;99.90;;;;;;5137976;27;20473;-75
2022/01/16 11:08:05;;;;;;;23.90;13.50;;;1.10;99.90;;;;;;5135933;27;20047;-76
2022/01/16 11:10:34;;;;;;;18.33;13.10;;;1.10;99.90;;;;;;5136197;27;20054;-75
2022/01/16 11:13:02;;;;;;;23.33;13.77;;;1.10;99.90;;;;;;5136161;27;20104;-77
2022/01/16 11:18:14;;;;;;;24.50;15.45;;;1.10;99.90;;;;;;5136293;27;20054;-76
2022/01/16 11:20:44;;;;;;;19.63;12.63;;;1.20;99.90;;;;;;5136114;27;20073;-78
2022/01/16 11:23:17;;;;;;;23.83;12.33;;;1.20;99.90;;;;;;5136070;27;20126;-77
2022/01/16 11:25:45;;;;;;;24.23;14.10;;;1.20;99.90;;;;;;5138240;27;20448;-78
2022/01/16 11:28:14;;;;;;;20.30;12.73;;;1.30;99.90;;;;;;5137444;27;20046;-76
2022/01/16 11:30:44;;;;;;;31.00;14.13;;;1.40;99.90;;;;;;5139016;27;20399;-76
2022/01/16 11:33:12;;;;;;;21.57;13.67;;;1.50;99.90;;;;;;5139377;27;20081;-76
2022/01/16 11:35:44;;;;;;;21.80;13.93;;;1.50;99.90;;;;;;5139668;27;20043;-75
2022/01/16 11:38:12;;;;;;;23.63;12.18;;;1.50;99.90;;;;;;5136486;27;20054;-74
2022/01/16 11:40:45;;;;;;;14.30;10.37;;;1.60;99.90;;;;;;5138423;27;20047;-76
2022/01/16 11:43:20;;;;;;;22.57;11.37;;;1.60;99.90;;;;;;5147075;27;20522;-76
2022/01/16 11:45:49;;;;;;;16.73;11.27;;;1.60;99.90;;;;;;5144829;27;20047;-76
2022/01/16 11:48:40;;;;;;;15.57;10.50;;;1.70;99.90;;;;;;5143811;27;20492;-76
2022/01/16 11:51:40;;;;;;;17.73;11.77;;;1.60;99.90;;;;;;5136677;27;20051;-76
2022/01/16 11:54:09;;;;;;;23.17;11.20;;;1.60;99.90;;;;;;5135723;27;20058;-75
2022/01/16 11:56:53;;;;;;;21.90;10.37;;;1.60;99.90;;;;;;5138638;27;20049;-77
2022/01/16 11:59:21;;;;;;;17.33;12.37;;;1.60;99.90;;;;;;5144273;27;20047;-76
2022/01/16 12:01:50;;;;;;;21.10;11.57;;;1.60;99.90;;;;;;5146600;27;20043;-76
2022/01/16 12:04:50;;;;;;;16.87;11.33;;;1.60;99.90;;;;;;5139124;27;20043;-75
2022/01/16 12:07:46;;;;;;;18.50;10.27;;;1.60;99.90;;;;;;5136802;27;20517;-76
2022/01/16 12:10:34;;;;;;;18.73;10.13;;;1.50;99.90;;;;;;5137877;27;20049;-75
2022/01/16 12:13:00;;;;;;;24.37;12.50;;;1.60;99.90;;;;;;5139407;27;20081;-76
2022/01/16 12:15:28;;;;;;;28.13;15.33;;;1.70;99.90;;;;;;5136437;27;20043;-76
2022/01/16 12:17:55;;;;;;;19.63;11.93;;;1.80;99.90;;;;;;5135583;27;20415;-76
2022/01/16 12:20:26;;;;;;;19.27;11.50;;;1.80;99.90;;;;;;5135013;27;20456;-77
2022/01/16 12:22:55;;;;;;;25.45;11.98;;;1.90;99.90;;;;;;5134710;27;20047;-76
2022/01/16 12:25:24;;;;;;;16.00;11.30;;;2.00;99.90;;;;;;5133968;27;20187;-75
2022/01/16 12:27:56;;;;;;;17.00;10.07;;;2.00;99.90;;;;;;5134484;27;20452;-76
2022/01/16 12:30:35;;;;;;;19.70;11.97;;;1.90;99.90;;;;;;5134344;27;20043;-76
2022/01/16 12:33:22;;;;;;;21.83;12.03;;;1.90;99.90;;;;;;5133911;27;20388;-77
2022/01/16 12:36:08;;;;;;;15.17;10.43;;;1.90;99.90;;;;;;5134095;27;20476;-77
2022/01/16 12:38:36;;;;;;;22.80;14.40;;;1.90;99.90;;;;;;5135858;27;20137;-76
2022/01/16 12:41:07;;;;;;;20.57;12.63;;;2.00;99.90;;;;;;5135018;27;20044;-76
2022/01/16 12:43:40;;;;;;;21.17;13.17;;;2.00;99.90;;;;;;5135240;27;20047;-77
2022/01/16 12:46:09;;;;;;;19.37;12.27;;;2.10;99.90;;;;;;5134532;27;21011;-77
2022/01/16 12:48:40;;;;;;;23.67;13.63;;;2.10;99.90;;;;;;5134849;27;20062;-77
2022/01/16 12:51:09;;;;;;;21.70;12.30;;;2.10;99.90;;;;;;5135764;27;20485;-77
2022/01/16 12:53:41;;;;;;;26.90;15.53;;;2.20;99.90;;;;;;5135134;27;20046;-76
2022/01/16 12:56:22;;;;;;;24.70;10.85;;;2.10;99.90;;;;;;5134594;27;20054;-76
2022/01/16 12:58:51;;;;;;;20.38;11.45;;;2.20;99.90;;;;;;5134349;27;20502;-76
2022/01/16 13:01:18;;;;;;;26.97;14.97;;;2.10;99.90;;;;;;5135928;27;20096;-76
2022/01/16 13:03:46;;;;;;;20.83;13.57;;;2.10;99.90;;;;;;5142715;27;20043;-75
2022/01/16 13:06:22;;;;;;;20.43;12.27;;;2.10;99.90;;;;;;5142721;27;20479;-77
2022/01/16 13:08:55;;;;;;;23.77;14.67;;;2.10;99.90;;;;;;5135408;27;20062;-76
2022/01/16 13:11:22;;;;;;;22.53;12.67;;;2.20;99.90;;;;;;5141459;27;20112;-76
2022/01/16 13:13:49;;;;;;;16.90;12.40;;;2.20;99.90;;;;;;5134939;27;20058;-76
2022/01/16 13:16:24;;;;;;;21.03;10.77;;;2.30;99.90;;;;;;5133722;27;20596;-76
2022/01/16 13:19:08;;;;;;;30.13;14.10;;;2.20;99.90;;;;;;5133786;27;20077;-77
2022/01/16 13:21:58;;;;;;;30.43;13.17;;;2.30;99.90;;;;;;5134849;27;20051;-75
2022/01/16 13:24:36;;;;;;;27.47;12.27;;;2.30;99.90;;;;;;5138218;27;20053;-75
2022/01/16 13:27:05;;;;;;;23.10;14.43;;;2.20;99.90;;;;;;5134780;27;20081;-77
2022/01/16 13:29:33;;;;;;;18.70;11.23;;;2.30;99.90;;;;;;5133855;27;20234;-77
2022/01/16 13:32:03;;;;;;;22.23;13.87;;;2.30;99.90;;;;;;5133699;27;20103;-76
2022/01/16 13:34:38;;;;;;;22.57;11.70;;;2.40;99.90;;;;;;5133246;27;20047;-76